Time;durP1;ratioP1;P1;durP2;ratioP2;P2;SDS_P1;SDS_P2;PMS_P1;PMS_P2;Temp;Humidity;BMP_temperature;BMP_pressure;BME280_temperature;BME280_humidity;BME280_pressure;Samples;Min_cycle;Max_cycle;Signal;HPM_P1;HPM_P2
2022/05/18 00:01:22;;;;;;;2.85;2.60;;;;;;;17.95;56.99;97186.91;6097295;23;20023;-77
2022/05/18 00:03:49;;;;;;;4.32;3.03;;;;;;;17.95;56.77;97191.34;6097151;23;20018;-77
2022/05/18 00:06:17;;;;;;;3.63;2.65;;;;;;;17.94;57.00;97193.19;6096135;23;20350;-77
2022/05/18 00:08:44;;;;;;;3.90;3.00;;;;;;;17.94;57.01;97198.47;6096459;23;20097;-77
2022/05/18 00:11:15;;;;;;;3.65;2.85;;;;;;;17.97;58.29;97205.94;6097056;23;20037;-77
2022/05/18 00:13:45;;;;;;;4.85;2.78;;;;;;;18.00;57.34;97200.25;6097061;23;20097;-77
2022/05/18 00:16:15;;;;;;;3.83;3.08;;;;;;;18.03;57.50;97205.09;6096163;23;20022;-77
2022/05/18 00:18:44;;;;;;;5.72;2.95;;;;;;;18.03;57.51;97207.75;6096802;23;20027;-77
2022/05/18 00:21:13;;;;;;;3.15;2.85;;;;;;;18.00;57.55;97202.09;6097473;23;20022;-77
2022/05/18 00:23:40;;;;;;;6.78;3.70;;;;;;;17.96;57.44;97203.56;6096720;23;20022;-77
2022/05/18 00:26:08;;;;;;;6.97;3.30;;;;;;;17.94;57.66;97209.03;6096012;23;20102;-77
2022/05/18 00:28:37;;;;;;;5.30;3.35;;;;;;;17.92;57.54;97205.78;6096869;23;20026;-77
2022/05/18 00:31:05;;;;;;;4.55;3.15;;;;;;;17.88;57.56;97213.31;6096479;23;20022;-77
2022/05/18 00:33:33;;;;;;;6.65;3.00;;;;;;;17.84;57.65;97211.31;6096922;23;20026;-77
2022/05/18 00:36:00;;;;;;;3.63;2.63;;;;;;;17.86;59.27;97214.56;6095650;23;20459;-77
2022/05/18 00:38:29;;;;;;;5.85;3.28;;;;;;;17.88;59.48;97217.78;6096365;23;20471;-77
2022/05/18 00:40:57;;;;;;;7.85;4.25;;;;;;;17.87;58.73;97217.00;6096405;23;20566;-77
2022/05/18 00:43:40;;;;;;;3.95;3.55;;;;;;;17.86;60.11;97220.66;6097010;23;20101;-77
2022/05/18 00:46:12;;;;;;;7.90;4.10;;;;;;;17.83;59.06;97213.16;6096090;23;20451;-76
2022/05/18 00:48:40;;;;;;;3.97;3.67;;;;;;;17.82;60.23;97218.63;6097030;23;20029;-77
2022/05/18 00:51:16;;;;;;;5.00;3.28;;;;;;;17.82;59.41;97218.63;6096809;23;20022;-77
2022/05/18 00:53:48;;;;;;;6.43;3.28;;;;;;;17.82;59.95;97218.63;6096535;23;20073;-77
2022/05/18 00:56:22;;;;;;;3.95;3.33;;;;;;;17.83;60.83;97215.00;6095960;23;20037;-77
2022/05/18 00:58:56;;;;;;;6.22;3.65;;;;;;;17.83;59.95;97212.34;6096644;23;20026;-77
2022/05/18 01:01:25;;;;;;;4.07;3.67;;;;;;;17.80;59.50;97221.47;6096905;23;20027;-77
2022/05/18 01:03:54;;;;;;;5.07;4.05;;;;;;;17.73;59.27;97215.41;6096637;23;20026;-77
2022/05/18 01:06:27;;;;;;;4.00;3.70;;;;;;;17.67;59.73;97217.09;6096154;23;20102;-78
2022/05/18 01:09:02;;;;;;;4.50;3.83;;;;;;;17.63;59.55;97221.16;6097709;23;20026;-77
2022/05/18 01:11:30;;;;;;;6.22;3.78;;;;;;;17.57;59.43;97218.56;6097950;23;20023;-77
2022/05/18 01:13:59;;;;;;;7.35;3.38;;;;;;;17.50;59.27;97221.25;6097231;23;20026;-77
2022/05/18 01:16:27;;;;;;;5.22;3.33;;;;;;;17.40;59.21;97212.97;6095948;23;20231;-77
2022/05/18 01:18:57;;;;;;;4.93;3.55;;;;;;;17.35;59.21;97210.16;6096018;23;20089;-77
2022/05/18 01:21:29;;;;;;;9.60;3.70;;;;;;;17.33;59.18;97204.28;6096679;23;20105;-77
2022/05/18 01:24:05;;;;;;;6.38;3.45;;;;;;;17.33;59.87;97206.91;6096037;23;20062;-77
2022/05/18 01:26:41;;;;;;;5.25;3.17;;;;;;;17.40;61.72;97212.97;6093904;23;20014;-77
2022/05/18 01:29:10;;;;;;;3.40;3.10;;;;;;;17.46;61.62;97210.28;6126970;23;20455;-79
2022/05/18 01:31:43;;;;;;;4.68;2.97;;;;;;;17.56;61.33;97217.75;6137202;23;20396;-77
2022/05/18 01:34:12;;;;;;;6.32;4.65;;;;;;;17.58;60.29;97226.28;6136646;23;20398;-76
2022/05/18 01:36:39;;;;;;;6.60;4.13;;;;;;;17.54;60.01;97216.34;6135492;23;20022;-78
2022/05/18 01:39:11;;;;;;;5.82;4.20;;;;;;;17.48;59.88;97218.00;6135697;23;20022;-78
2022/05/18 01:41:49;;;;;;;9.05;4.63;;;;;;;17.41;59.79;97218.03;6138697;23;20101;-77
2022/05/18 01:44:16;;;;;;;4.60;3.90;;;;;;;17.37;59.77;97216.03;6138128;23;20350;-76
2022/05/18 01:46:46;;;;;;;6.30;4.03;;;;;;;17.33;59.75;97217.47;6135089;23;20021;-78
2022/05/18 01:49:13;;;;;;;3.60;3.30;;;;;;;17.29;59.75;97219.69;6135108;23;20073;-77
2022/05/18 01:51:44;;;;;;;5.47;3.53;;;;;;;17.26;59.81;97215.66;6147121;23;20046;-79
2022/05/18 01:54:12;;;;;;;5.38;3.70;;;;;;;17.23;59.75;97210.81;6146983;23;20046;-78
2022/05/18 01:56:41;;;;;;;5.40;3.70;;;;;;;17.19;59.57;97214.88;6145598;23;20022;-79
2022/05/18 01:59:09;;;;;;;2.83;2.63;;;;;;;17.18;59.61;97210.59;6145799;23;20056;-81
2022/05/18 02:01:37;;;;;;;4.55;3.28;;;;;;;17.15;59.42;97218.94;6148150;23;20025;-79
2022/05/18 02:04:05;;;;;;;6.97;3.03;;;;;;;17.13;59.42;97220.16;6148035;23;20026;-79
2022/05/18 02:06:33;;;;;;;3.33;2.83;;;;;;;17.12;59.63;97224.66;6146013;23;20024;-79
2022/05/18 02:09:02;;;;;;;4.85;3.15;;;;;;;17.11;59.80;97227.47;6146993;23;20032;-78
2022/05/18 02:11:33;;;;;;;4.22;2.65;;;;;;;17.16;61.43;97231.09;6147373;23;20105;-79
2022/05/18 02:14:02;;;;;;;4.53;3.40;;;;;;;17.25;61.76;97239.59;6148198;23;20081;-77
2022/05/18 02:16:30;;;;;;;6.47;4.40;;;;;;;17.28;60.65;97228.63;6146967;23;20358;-79
2022/05/18 02:18:58;;;;;;;5.65;4.80;;;;;;;17.24;60.38;97228.22;6147002;23;20021;-78
2022/05/18 02:21:25;;;;;;;6.30;4.30;;;;;;;17.17;60.34;97224.00;6145319;23;20056;-77
2022/05/18 02:23:53;;;;;;;4.05;3.65;;;;;;;17.11;59.86;97217.75;6145074;23;20104;-77
2022/05/18 02:26:21;;;;;;;4.85;3.22;;;;;;;17.05;59.95;97218.56;6142804;23;20029;-79
2022/05/18 02:28:49;;;;;;;6.32;3.28;;;;;;;17.01;59.62;97220.00;6142334;23;20060;-78
2022/05/18 02:31:18;;;;;;;4.22;3.33;;;;;;;16.96;59.69;97225.88;6144477;23;20082;-77
2022/05/18 02:33:46;;;;;;;6.22;3.22;;;;;;;16.93;59.64;97215.75;6143574;23;20062;-79
2022/05/18 02:36:14;;;;;;;4.72;3.92;;;;;;;16.89;59.88;97218.00;6142095;23;20097;-77
2022/05/18 02:38:43;;;;;;;6.78;3.55;;;;;;;16.86;60.04;97220.25;6140434;23;20054;-78
2022/05/18 02:41:11;;;;;;;5.25;3.47;;;;;;;16.84;60.09;97225.72;6139959;23;20010;-77
2022/05/18 02:43:40;;;;;;;4.53;3.13;;;;;;;16.82;60.06;97225.13;6141406;23;20097;-78
2022/05/18 02:46:09;;;;;;;5.65;3.78;;;;;;;16.83;60.20;97229.34;6140813;23;20046;-78
2022/05/18 02:48:38;;;;;;;3.45;3.15;;;;;;;16.84;60.18;97222.28;6140336;23;20026;-79
2022/05/18 02:51:07;;;;;;;4.00;3.40;;;;;;;16.87;61.09;97230.56;6140328;23;20550;-77
2022/05/18 02:53:34;;;;;;;4.28;3.20;;;;;;;16.95;60.84;97219.00;6140060;23;20093;-79
2022/05/18 02:56:05;;;;;;;6.32;3.72;;;;;;;17.00;62.46;97221.81;6145275;23;20022;-80
2022/05/18 02:58:37;;;;;;;4.45;3.85;;;;;;;17.04;61.46;97222.22;6146990;23;20033;-79
2022/05/18 03:01:07;;;;;;;4.60;4.18;;;;;;;17.02;60.91;97221.63;6143691;23;20022;-80
2022/05/18 03:03:36;;;;;;;4.63;3.88;;;;;;;16.99;60.30;97220.22;6142752;23;20026;-78
2022/05/18 03:06:06;;;;;;;5.70;3.70;;;;;;;16.99;61.72;97222.03;6142061;23;20041;-78
2022/05/18 03:08:36;;;;;;;8.07;3.85;;;;;;;17.02;61.57;97219.00;6141609;23;20437;-76
2022/05/18 03:11:04;;;;;;;5.05;3.38;;;;;;;17.03;62.20;97221.44;6142460;23;20045;-77
2022/05/18 03:13:32;;;;;;;6.50;4.57;;;;;;;17.03;61.19;97220.59;6143069;23;20045;-76
2022/05/18 03:16:01;;;;;;;5.20;3.75;;;;;;;17.01;62.00;97228.72;6140134;23;20042;-77
2022/05/18 03:18:28;;;;;;;6.57;3.97;;;;;;;17.02;61.34;97226.91;6138642;23;20296;-77
2022/05/18 03:23:43;;;;;;;4.10;3.80;;;;;;;16.98;61.76;97229.13;6140074;23;20022;-78
2022/05/18 03:26:13;;;;;;;4.50;4.00;;;;;;;16.99;60.99;97237.84;6137806;23;20053;-80
2022/05/18 03:28:43;;;;;;;6.05;3.90;;;;;;;16.97;60.48;97239.88;6138481;23;20518;-78
2022/05/18 03:31:11;;;;;;;3.50;3.20;;;;;;;16.96;61.80;97249.59;6138393;23;20022;-77
2022/05/18 03:33:39;;;;;;;4.65;3.70;;;;;;;17.02;62.60;97248.78;6138092;23;20026;-78
2022/05/18 03:36:09;;;;;;;5.25;4.15;;;;;;;17.05;61.11;97258.09;6137453;23;20030;-77
2022/05/18 03:38:37;;;;;;;4.40;4.00;;;;;;;17.03;60.40;97253.06;6137204;23;20088;-76
2022/05/18 03:41:06;;;;;;;6.05;4.13;;;;;;;16.99;60.45;97258.91;6137113;23;20022;-78
2022/05/18 03:43:33;;;;;;;6.75;4.63;;;;;;;16.93;60.52;97249.22;6136747;23;20022;-76
2022/05/18 03:46:01;;;;;;;6.32;4.00;;;;;;;16.88;60.85;97253.28;6136283;23;20411;-76
2022/05/18 03:48:29;;;;;;;5.50;3.63;;;;;;;16.86;61.32;97263.22;6134624;23;20514;-77
2022/05/18 03:50:58;;;;;;;4.18;3.80;;;;;;;16.87;61.76;97264.00;6135472;23;20421;-77
2022/05/18 03:53:27;;;;;;;12.13;4.70;;;;;;;16.87;61.41;97269.28;6134398;23;20374;-78
2022/05/18 03:55:55;;;;;;;4.20;3.80;;;;;;;16.88;61.60;97271.72;6142431;23;20077;-78
2022/05/18 03:58:24;;;;;;;4.53;4.07;;;;;;;16.88;61.73;97271.72;6145319;23;20026;-78
2022/05/18 04:00:55;;;;;;;5.25;3.60;;;;;;;16.89;61.33;97272.53;6144319;23;20032;-76
2022/05/18 04:03:26;;;;;;;6.32;3.42;;;;;;;16.89;61.66;97281.25;6146362;23;20105;-80
2022/05/18 04:05:54;;;;;;;4.35;3.65;;;;;;;16.86;60.25;97268.47;6142240;23;20061;-77
2022/05/18 04:08:22;;;;;;;7.38;3.58;;;;;;;16.79;60.23;97278.19;6141995;23;20494;-76
2022/05/18 04:10:50;;;;;;;7.32;4.00;;;;;;;16.76;60.27;97283.84;6142811;23;20049;-77
2022/05/18 04:13:21;;;;;;;4.05;3.47;;;;;;;16.72;60.42;97277.38;6142379;23;20112;-78
2022/05/18 04:15:50;;;;;;;3.55;3.20;;;;;;;16.68;60.33;97278.78;6141088;23;20033;-78
2022/05/18 04:18:18;;;;;;;6.38;3.60;;;;;;;16.64;60.59;97280.25;6151500;23;20038;-79
2022/05/18 04:20:46;;;;;;;3.65;3.35;;;;;;;16.62;60.62;97288.34;6151587;23;20029;-80
2022/05/18 04:23:14;;;;;;;8.85;3.78;;;;;;;16.60;60.65;97279.81;6147203;23;20097;-79
2022/05/18 04:25:42;;;;;;;5.72;3.92;;;;;;;16.59;60.63;97288.72;6145251;23;20104;-78
2022/05/18 04:28:13;;;;;;;5.18;4.00;;;;;;;16.59;60.64;97294.00;6141539;23;20514;-80
2022/05/18 04:30:42;;;;;;;5.32;4.10;;;;;;;16.60;61.08;97293.00;6142254;23;20041;-78
2022/05/18 04:33:12;;;;;;;6.60;3.70;;;;;;;16.63;60.89;97294.41;6140820;23;20026;-77
2022/05/18 04:35:40;;;;;;;7.50;3.78;;;;;;;16.65;60.75;97298.44;6139402;23;20070;-78
2022/05/18 04:38:08;;;;;;;4.32;3.45;;;;;;;16.67;60.68;97295.63;6139150;23;20018;-77
2022/05/18 04:40:36;;;;;;;7.40;4.07;;;;;;;16.67;60.81;97296.44;6141171;23;20417;-80
2022/05/18 04:43:03;;;;;;;7.00;3.83;;;;;;;16.69;60.86;97297.03;6140848;23;20052;-81
2022/05/18 04:45:31;;;;;;;4.85;4.18;;;;;;;16.71;60.77;97296.84;6140645;23;20021;-76
2022/05/18 04:47:58;;;;;;;6.60;3.97;;;;;;;16.74;60.85;97295.63;6138783;23;20074;-77
2022/05/18 04:50:27;;;;;;;8.90;4.60;;;;;;;16.77;60.71;97300.47;6140705;23;20105;-80
2022/05/18 04:52:55;;;;;;;6.72;4.40;;;;;;;16.80;60.71;97294.84;6139580;23;20056;-76
2022/05/18 04:55:22;;;;;;;6.93;4.32;;;;;;;16.82;60.65;97293.63;6140497;23;20032;-80
2022/05/18 04:57:51;;;;;;;5.82;4.65;;;;;;;16.80;60.56;97308.81;6140274;23;20096;-77
2022/05/18 05:00:21;;;;;;;6.22;5.35;;;;;;;16.81;61.42;97307.00;6137785;23;20479;-77
2022/05/18 05:02:48;;;;;;;7.00;5.18;;;;;;;16.82;61.12;97306.00;6137696;23;20073;-79
2022/05/18 05:05:16;;;;;;;9.07;4.82;;;;;;;16.82;61.08;97306.00;6136566;23;20096;-77
2022/05/18 05:07:45;;;;;;;6.60;4.78;;;;;;;16.81;61.23;97310.44;6135926;23;20018;-77
2022/05/18 05:10:12;;;;;;;6.80;4.60;;;;;;;16.82;61.05;97311.25;6137933;23;20057;-77
2022/05/18 05:12:41;;;;;;;6.40;5.00;;;;;;;16.81;60.96;97307.00;6139482;23;20090;-77
2022/05/18 05:15:10;;;;;;;6.28;4.90;;;;;;;16.80;61.07;97311.44;6142301;23;20026;-81
2022/05/18 05:17:38;;;;;;;8.00;4.45;;;;;;;16.81;61.27;97322.78;6138814;23;20106;-81
2022/05/18 05:20:07;;;;;;;6.30;4.22;;;;;;;16.83;61.22;97324.22;6141669;23;20105;-77
2022/05/18 05:22:35;;;;;;;6.95;4.45;;;;;;;16.87;61.31;97332.53;6139986;23;20054;-82
2022/05/18 05:25:04;;;;;;;7.28;4.80;;;;;;;16.92;61.20;97338.00;6142982;23;20030;-80
2022/05/18 05:27:32;;;;;;;5.35;4.40;;;;;;;16.95;61.27;97329.69;6141656;23;20069;-78
2022/05/18 05:29:59;;;;;;;8.45;4.75;;;;;;;16.97;61.41;97334.78;6144213;23;20033;-78
2022/05/18 05:32:27;;;;;;;9.38;4.38;;;;;;;17.01;61.26;97341.22;6144832;23;20056;-82
2022/05/18 05:34:55;;;;;;;13.13;4.93;;;;;;;17.04;61.06;97340.84;6145109;23;20033;-86
2022/05/18 05:37:22;;;;;;;7.65;4.55;;;;;;;17.08;60.98;97336.78;6143060;23;20041;-83
2022/05/18 05:39:50;;;;;;;12.60;4.38;;;;;;;17.11;61.08;97339.00;6140167;23;20049;-77
2022/05/18 05:42:19;;;;;;;7.90;4.28;;;;;;;17.15;61.14;97340.22;6140661;23;20425;-79
2022/05/18 05:44:47;;;;;;;9.27;4.95;;;;;;;17.19;61.09;97341.41;6141717;23;20026;-79
2022/05/18 05:47:14;;;;;;;5.60;4.38;;;;;;;17.25;60.91;97334.50;6140529;23;20018;-78
2022/05/18 05:49:42;;;;;;;5.32;4.03;;;;;;;17.28;60.76;97340.19;6141951;23;20033;-79
2022/05/18 05:52:10;;;;;;;5.78;4.00;;;;;;;17.34;60.79;97345.63;6142050;23;20026;-76
2022/05/18 05:54:38;;;;;;;5.25;4.28;;;;;;;17.38;60.77;97344.22;6142722;23;20060;-79
2022/05/18 05:57:06;;;;;;;5.53;4.13;;;;;;;17.42;60.59;97340.94;6143191;23;20018;-78
2022/05/18 05:59:37;;;;;;;4.60;3.75;;;;;;;17.50;60.37;97345.22;6145275;23;20026;-81
2022/05/18 06:02:08;;;;;;;7.47;4.50;;;;;;;17.55;60.50;97348.03;6144722;23;20077;-77
2022/05/18 06:04:37;;;;;;;4.82;3.42;;;;;;;17.61;60.17;97349.03;6143678;23;20026;-77
2022/05/18 06:07:05;;;;;;;6.32;3.92;;;;;;;17.67;60.27;97349.00;6141448;23;20014;-78
2022/05/18 06:09:34;;;;;;;5.13;3.90;;;;;;;17.73;60.24;97347.34;6143506;23;20434;-78
2022/05/18 06:12:01;;;;;;;8.45;3.90;;;;;;;17.80;60.25;97353.44;6143492;23;20105;-79
2022/05/18 06:14:29;;;;;;;7.07;4.30;;;;;;;17.88;59.93;97349.75;6143525;23;20037;-76
2022/05/18 06:16:58;;;;;;;8.00;4.05;;;;;;;17.94;59.71;97343.66;6140228;23;20442;-76
2022/05/18 06:19:25;;;;;;;5.18;3.70;;;;;;;18.01;59.77;97352.34;6140598;23;20046;-77
2022/05/18 06:21:53;;;;;;;6.75;3.92;;;;;;;18.08;59.49;97345.22;6140485;23;20394;-76
2022/05/18 06:24:21;;;;;;;5.60;3.22;;;;;;;18.16;59.41;97348.63;6139390;23;20022;-76
2022/05/18 06:26:48;;;;;;;7.53;4.25;;;;;;;18.23;59.39;97354.66;6137596;23;20105;-77
2022/05/18 06:29:16;;;;;;;6.07;3.78;;;;;;;18.30;59.28;97347.50;6136134;23;20022;-77
2022/05/18 06:31:43;;;;;;;7.18;3.80;;;;;;;18.37;58.85;97352.78;6136284;23;20025;-78
2022/05/18 06:34:13;;;;;;;6.53;3.60;;;;;;;18.45;58.50;97355.94;6135706;23;20038;-76
2022/05/18 06:36:40;;;;;;;6.00;3.90;;;;;;;18.53;58.42;97358.34;6134442;23;20022;-79
2022/05/18 06:39:08;;;;;;;6.50;3.33;;;;;;;18.62;58.18;97355.44;6133345;23;20097;-78
2022/05/18 06:41:36;;;;;;;3.67;3.25;;;;;;;18.69;58.16;97356.19;6133938;23;20096;-77
2022/05/18 06:44:05;;;;;;;4.15;2.95;;;;;;;18.78;57.65;97354.94;6135718;23;20394;-76
2022/05/18 06:46:35;;;;;;;4.95;3.10;;;;;;;18.85;57.52;97355.72;6132339;23;20493;-78
2022/05/18 06:49:03;;;;;;;3.38;3.08;;;;;;;18.93;57.41;97355.44;6134452;23;20024;-77
2022/05/18 06:51:34;;;;;;;5.00;3.03;;;;;;;19.02;56.75;97355.16;6134381;23;20370;-77
2022/05/18 06:54:03;;;;;;;4.57;2.63;;;;;;;19.09;57.13;97362.00;6134571;23;20354;-82
2022/05/18 06:56:33;;;;;;;5.65;3.20;;;;;;;19.18;57.06;97359.91;6141617;23;20077;-80
2022/05/18 06:59:02;;;;;;;6.15;3.28;;;;;;;19.26;56.64;97362.28;6142664;23;20082;-80
2022/05/18 07:01:30;;;;;;;10.02;3.47;;;;;;;19.34;56.62;97366.44;6141675;23;20362;-79
2022/05/18 07:03:58;;;;;;;8.50;3.28;;;;;;;19.42;56.49;97371.47;6142162;23;20022;-80
2022/05/18 07:06:29;;;;;;;6.82;2.97;;;;;;;19.51;56.34;97367.50;6139821;23;20026;-80
2022/05/18 07:08:58;;;;;;;5.88;3.00;;;;;;;19.59;55.99;97369.06;6140772;23;20021;-77
2022/05/18 07:11:26;;;;;;;4.50;2.95;;;;;;;19.67;56.04;97366.09;6141229;23;20029;-80
2022/05/18 07:13:55;;;;;;;3.97;3.13;;;;;;;19.74;55.62;97358.94;6139344;23;20486;-78
2022/05/18 07:16:24;;;;;;;3.72;3.00;;;;;;;19.82;55.58;97360.47;6138800;23;20357;-75
2022/05/18 07:18:55;;;;;;;4.78;2.85;;;;;;;19.93;54.93;97366.84;6139893;23;20025;-80
2022/05/18 07:21:25;;;;;;;4.57;3.20;;;;;;;20.01;54.76;97366.56;6137800;23;20465;-77
2022/05/18 07:23:53;;;;;;;6.43;3.08;;;;;;;20.10;55.05;97372.34;6139663;23;20022;-77
2022/05/18 07:26:24;;;;;;;19.88;4.47;;;;;;;20.18;54.02;97372.03;6140912;23;20046;-77
